Time;durP1;ratioP1;P1;durP2;ratioP2;P2;SDS_P1;SDS_P2;PMS_P1;PMS_P2;Temp;Humidity;BMP_temperature;BMP_pressure;BME280_temperature;BME280_humidity;BME280_pressure;Samples;Min_cycle;Max_cycle;Signal;HPM_P1;HPM_P2
2021/07/01 00:01:37;;;;;;;14.98;5.20;;;;;;;18.87;80.90;100223.87;1746432;82;21361;-53
2021/07/01 00:04:42;;;;;;;9.70;4.90;;;;;;;18.87;81.11;100220.58;1746078;82;21362;-54
2021/07/01 00:07:50;;;;;;;13.85;4.95;;;;;;;18.85;80.92;100224.12;1745483;82;21310;-54
2021/07/01 00:10:55;;;;;;;10.80;4.72;;;;;;;18.84;80.59;100222.44;1746147;82;21417;-54
2021/07/01 00:14:02;;;;;;;13.98;4.92;;;;;;;18.74;80.36;100215.76;1746172;82;21402;-54
2021/07/01 00:17:09;;;;;;;13.70;5.25;;;;;;;18.66;80.53;100211.34;1746208;82;21212;-54
2021/07/01 00:20:16;;;;;;;9.50;5.00;;;;;;;18.61;80.81;100211.75;1746350;82;21433;-53
2021/07/01 00:23:21;;;;;;;15.50;6.62;;;;;;;18.60;80.90;100205.34;1745516;82;21247;-55
2021/07/01 00:26:26;;;;;;;14.78;5.40;;;;;;;18.52;80.94;100213.97;1744872;82;21408;-54
2021/07/01 00:29:32;;;;;;;15.40;6.33;;;;;;;18.47;81.23;100204.11;1745907;82;21235;-54
2021/07/01 00:32:37;;;;;;;12.28;5.08;;;;;;;18.46;81.37;100202.96;1744619;82;21439;-54
2021/07/01 00:35:42;;;;;;;19.70;6.40;;;;;;;18.43;81.58;100208.97;1745592;81;21382;-53
2021/07/01 00:38:50;;;;;;;12.80;5.30;;;;;;;18.47;81.71;100202.73;1706392;84;21217;-53
2021/07/01 00:41:55;;;;;;;17.27;6.03;;;;;;;18.52;81.68;100209.81;1706276;84;21247;-54
2021/07/01 00:45:01;;;;;;;21.73;5.97;;;;;;;18.57;81.55;100211.36;1705977;84;21221;-53
2021/07/01 00:48:06;;;;;;;17.50;5.80;;;;;;;18.55;80.94;100202.42;1706318;84;21236;-54
2021/07/01 00:51:12;;;;;;;17.27;6.22;;;;;;;18.51;80.87;100209.52;1706106;84;21301;-55
2021/07/01 00:54:17;;;;;;;13.18;5.83;;;;;;;18.51;80.87;100209.52;1706371;84;21276;-55
2021/07/01 00:57:22;;;;;;;11.73;5.78;;;;;;;18.47;80.62;100201.91;1706184;84;21229;-55
2021/07/01 01:03:53;;;;;;;17.42;5.67;;;;;;;18.42;80.97;100205.38;1706246;84;21204;-55
2021/07/01 01:06:59;;;;;;;12.30;5.25;;;;;;;18.42;81.08;100204.52;1706224;84;21216;-55
2021/07/01 01:10:05;;;;;;;12.70;4.75;;;;;;;18.40;80.95;100215.84;1706143;84;21315;-54
2021/07/01 01:13:12;;;;;;;11.45;5.00;;;;;;;18.39;80.87;100211.38;1706376;84;21314;-55
2021/07/01 01:16:37;;;;;;;9.63;5.00;;;;;;;18.37;80.66;100215.41;1693243;84;21240;-54
2021/07/01 01:19:42;;;;;;;13.45;4.87;;;;;;;18.35;80.77;100218.41;1690063;84;21339;-54
2021/07/01 01:22:47;;;;;;;8.13;4.92;;;;;;;18.31;80.64;100205.25;1706454;84;21216;-54
2021/07/01 01:26:00;;;;;;;12.82;5.00;;;;;;;18.28;80.82;100203.80;1706262;84;21240;-54
2021/07/01 01:29:09;;;;;;;7.87;4.58;;;;;;;18.27;80.97;100207.63;1706179;84;21193;-53
2021/07/01 01:32:32;;;;;;;8.88;4.42;;;;;;;18.25;80.92;100207.00;1693406;84;21552;-54
2021/07/01 01:35:55;;;;;;;7.65;4.80;;;;;;;18.21;81.03;100207.70;1706510;84;21300;-54
2021/07/01 01:39:01;;;;;;;7.72;4.95;;;;;;;18.19;81.10;100207.92;1747779;82;21251;-53
2021/07/01 01:42:08;;;;;;;8.05;4.42;;;;;;;18.16;81.16;100213.07;1752784;82;21197;-53
2021/07/01 01:45:15;;;;;;;7.70;4.65;;;;;;;18.13;81.24;100217.16;1753059;82;21402;-53
2021/07/01 01:48:20;;;;;;;9.35;5.08;;;;;;;18.14;81.30;100218.02;1736908;81;21188;-54
2021/07/01 01:51:26;;;;;;;7.50;5.35;;;;;;;18.12;81.21;100216.01;1753159;82;21854;-55
2021/07/01 01:54:33;;;;;;;10.78;5.70;;;;;;;18.10;81.47;100205.16;1753085;82;21231;-56
2021/07/01 01:57:39;;;;;;;11.88;6.65;;;;;;;18.12;81.68;100201.62;1753120;82;21243;-54
2021/07/01 02:01:03;;;;;;;20.17;6.87;;;;;;;18.14;81.72;100200.83;1753262;82;21365;-54
2021/07/01 02:04:10;;;;;;;10.32;5.17;;;;;;;18.11;81.77;100202.68;1753213;82;21288;-55
2021/07/01 02:07:16;;;;;;;8.28;5.55;;;;;;;18.09;81.88;100211.78;1756037;81;21345;-54
2021/07/01 02:10:28;;;;;;;10.15;5.15;;;;;;;18.07;82.39;100215.84;1753197;82;21290;-55
2021/07/01 02:13:35;;;;;;;8.55;5.20;;;;;;;18.10;82.46;100218.15;1753132;82;21239;-55
2021/07/01 02:17:00;;;;;;;11.63;4.95;;;;;;;18.12;82.48;100216.86;1753163;82;21204;-55
2021/07/01 02:20:07;;;;;;;9.78;5.67;;;;;;;18.15;82.27;100212.77;1753205;82;21848;-55
2021/07/01 02:23:13;;;;;;;18.42;6.10;;;;;;;18.17;82.12;100213.41;1753312;82;21338;-55
2021/07/01 02:26:18;;;;;;;11.10;5.22;;;;;;;18.24;82.34;100221.09;1753304;82;21393;-54
2021/07/01 02:29:24;;;;;;;11.30;5.28;;;;;;;18.29;82.18;100217.09;1753106;82;21199;-56
2021/07/01 02:32:32;;;;;;;11.78;5.28;;;;;;;18.31;81.97;100221.35;1753075;82;21228;-56
2021/07/01 02:35:40;;;;;;;10.70;5.62;;;;;;;18.34;81.59;100220.89;1753049;82;21440;-56
2021/07/01 02:39:03;;;;;;;14.18;5.65;;;;;;;18.40;81.58;100214.45;1750848;82;21428;-56
2021/07/01 02:42:08;;;;;;;16.25;5.78;;;;;;;18.43;81.36;100218.14;1753211;82;21422;-56
2021/07/01 02:45:17;;;;;;;14.68;5.28;;;;;;;18.48;81.33;100215.53;1753021;82;21401;-54
2021/07/01 02:48:26;;;;;;;14.03;4.87;;;;;;;18.50;81.20;100214.77;1753219;82;21207;-54
2021/07/01 02:51:32;;;;;;;9.60;5.70;;;;;;;18.58;81.14;100218.62;1752453;82;21386;-54
2021/07/01 02:54:38;;;;;;;8.80;5.35;;;;;;;18.66;81.09;100220.23;1718760;83;21321;-54
2021/07/01 02:57:45;;;;;;;8.85;5.25;;;;;;;18.78;80.81;100221.98;1722019;83;21192;-53
2021/07/01 03:00:49;;;;;;;8.38;5.47;;;;;;;18.88;80.55;100220.91;1752713;82;21370;-53
2021/07/01 03:03:55;;;;;;;8.00;5.72;;;;;;;18.97;79.87;100218.11;1753114;82;21904;-53
2021/07/01 03:07:00;;;;;;;16.37;5.25;;;;;;;19.04;79.57;100216.06;1753016;82;21770;-53
2021/07/01 03:10:05;;;;;;;12.60;6.47;;;;;;;19.17;79.38;100213.11;1753037;82;21332;-53
2021/07/01 03:13:20;;;;;;;9.83;5.80;;;;;;;19.26;79.05;100215.89;1753179;82;21869;-53
2021/07/01 03:16:28;;;;;;;8.25;5.53;;;;;;;19.33;78.71;100218.03;1753478;82;21237;-53
2021/07/01 03:19:33;;;;;;;8.80;5.35;;;;;;;19.43;78.41;100222.16;1753567;82;21371;-53
2021/07/01 03:22:55;;;;;;;10.63;5.70;;;;;;;19.54;78.04;100222.20;1721826;82;21429;-53
2021/07/01 03:26:02;;;;;;;10.85;6.03;;;;;;;19.68;77.53;100240.34;1721969;82;21227;-54
2021/07/01 03:29:10;;;;;;;11.95;5.70;;;;;;;19.81;76.94;100232.33;1719648;83;21346;-54
2021/07/01 03:32:17;;;;;;;15.65;6.20;;;;;;;19.91;76.44;100226.50;1718884;83;21232;-54
2021/07/01 03:35:24;;;;;;;10.20;5.53;;;;;;;20.03;76.08;100220.94;1718065;83;21232;-54
2021/07/01 03:38:47;;;;;;;10.32;6.00;;;;;;;20.15;75.74;100217.66;1718989;83;21271;-53
2021/07/01 03:42:12;;;;;;;17.87;6.10;;;;;;;20.28;75.51;100222.98;1658068;85;21354;-53
2021/07/01 03:45:19;;;;;;;18.12;6.47;;;;;;;20.39;75.25;100226.30;1692957;85;21214;-54
2021/07/01 03:48:25;;;;;;;17.00;6.70;;;;;;;20.49;74.89;100234.85;1693396;85;21225;-54
2021/07/01 03:51:39;;;;;;;13.58;6.10;;;;;;;20.57;74.74;100243.69;1664643;83;21284;-54
2021/07/01 03:54:46;;;;;;;12.07;5.25;;;;;;;20.66;74.24;100231.65;1689209;85;21817;-54
2021/07/01 03:57:51;;;;;;;10.23;5.85;;;;;;;20.79;73.82;100239.16;1672830;85;21213;-54
2021/07/01 04:00:56;;;;;;;10.78;6.12;;;;;;;20.97;73.29;100249.31;1718497;83;21867;-54
2021/07/01 04:04:02;;;;;;;13.98;6.03;;;;;;;21.17;72.73;100252.50;1718118;83;21220;-54
2021/07/01 04:07:08;;;;;;;14.65;6.70;;;;;;;21.36;72.98;100247.61;1718496;83;21405;-54
2021/07/01 04:10:19;;;;;;;13.93;7.55;;;;;;;21.42;73.10;100246.61;1718726;83;21223;-54
2021/07/01 04:13:26;;;;;;;14.18;8.30;;;;;;;21.45;73.04;100258.09;1704514;83;21365;-54
2021/07/01 04:16:52;;;;;;;13.98;8.10;;;;;;;21.47;73.52;100233.60;1718294;83;21208;-53
2021/07/01 04:20:18;;;;;;;13.05;8.18;;;;;;;21.54;74.08;100244.59;1718741;83;21247;-53
2021/07/01 04:23:40;;;;;;;13.18;8.40;;;;;;;21.65;74.00;100257.61;1718161;83;21227;-53
2021/07/01 04:27:05;;;;;;;11.55;8.38;;;;;;;21.77;74.07;100263.45;1718625;83;21307;-53
2021/07/01 04:30:12;;;;;;;16.30;9.20;;;;;;;21.85;74.37;100258.86;1718460;83;21375;-53
2021/07/01 04:33:19;;;;;;;13.43;9.90;;;;;;;21.95;74.61;100244.25;1710182;83;21386;-53
2021/07/01 04:36:25;;;;;;;15.80;10.18;;;;;;;22.06;75.16;100249.75;1718510;83;21314;-54
2021/07/01 04:39:35;;;;;;;12.88;10.90;;;;;;;22.15;75.72;100251.00;1717991;83;21385;-54
2021/07/01 04:42:44;;;;;;;18.52;11.03;;;;;;;22.26;76.07;100253.42;1717698;83;21294;-55
2021/07/01 04:45:50;;;;;;;14.18;10.82;;;;;;;22.37;76.39;100235.75;1718215;83;21235;-55
2021/07/01 04:48:59;;;;;;;18.52;11.83;;;;;;;22.49;76.97;100235.62;1721300;83;21381;-56
2021/07/01 04:52:19;;;;;;;15.08;11.12;;;;;;;22.58;77.02;100238.31;1717791;83;21405;-54
2021/07/01 04:55:43;;;;;;;15.90;11.38;;;;;;;22.69;77.19;100249.34;1718669;83;21255;-55
2021/07/01 04:58:58;;;;;;;16.02;12.45;;;;;;;22.80;77.45;100246.16;1678177;82;22035;-54
2021/07/01 05:02:09;;;;;;;17.85;12.30;;;;;;;22.88;77.87;100240.13;1732996;82;22217;-55
2021/07/01 05:05:30;;;;;;;;;;;;;;;22.96;77.91;100250.27;1658941;86;21261;-56
2021/07/01 05:08:37;;;;;;;19.10;14.40;;;;;;;23.03;78.03;100250.08;1704444;84;20227;-57
2021/07/01 05:11:43;;;;;;;20.97;14.55;;;;;;;23.10;78.35;100237.59;1718011;83;21283;-57
2021/07/01 05:14:50;;;;;;;20.00;14.83;;;;;;;23.21;78.42;100217.63;1702817;83;21374;-54
2021/07/01 05:17:57;;;;;;;22.22;16.17;;;;;;;23.32;78.31;100232.03;1728307;82;21850;-55
2021/07/01 05:21:04;;;;;;;19.00;15.05;;;;;;;23.38;78.50;100222.59;1733629;82;21754;-55
2021/07/01 05:24:34;;;;;;;22.20;16.17;;;;;;;23.47;78.36;100209.83;1704390;83;21703;-55
2021/07/01 05:27:50;;;;;;;21.30;15.83;;;;;;;23.56;78.08;100219.45;1704462;83;21185;-55
2021/07/01 05:31:01;;;;;;;21.65;15.83;;;;;;;23.68;78.10;100222.05;1698480;83;21618;-55
2021/07/01 05:34:27;;;;;;;19.90;14.78;;;;;;;23.77;78.07;100212.91;1719443;82;21190;-53
2021/07/01 05:37:33;;;;;;;22.25;16.25;;;;;;;23.89;77.95;100221.98;1661346;86;21770;-54
2021/07/01 05:40:37;;;;;;;23.55;16.48;;;;;;;24.01;77.96;100207.84;1662059;86;21403;-55
2021/07/01 05:43:43;;;;;;;20.82;15.43;;;;;;;24.14;77.91;100204.04;1661690;86;21217;-54
2021/07/01 05:47:06;;;;;;;21.85;16.60;;;;;;;24.25;78.11;100201.60;1720553;83;21225;-54
2021/07/01 05:50:15;;;;;;;19.05;15.18;;;;;;;24.37;77.97;100200.83;1720226;83;21273;-54
2021/07/01 05:53:30;;;;;;;18.60;15.10;;;;;;;24.47;77.65;100204.25;1720115;83;21205;-53
2021/07/01 05:56:40;;;;;;;20.90;14.85;;;;;;;24.59;77.15;100202.92;1661235;86;21288;-55
2021/07/01 05:59:43;;;;;;;16.17;13.40;;;;;;;24.69;76.85;100210.56;1665959;84;21241;-54
2021/07/01 06:02:48;;;;;;;19.42;14.00;;;;;;;24.75;76.17;100201.92;1666366;86;21909;-54
2021/07/01 06:05:54;;;;;;;15.32;13.65;;;;;;;24.83;76.00;100209.80;1665985;86;21226;-56
2021/07/01 06:09:22;;;;;;;15.48;13.70;;;;;;;24.94;76.05;100199.50;1727903;83;21814;-55
2021/07/01 06:12:29;;;;;;;17.90;14.55;;;;;;;25.05;76.23;100204.84;1665963;86;21838;-55
2021/07/01 06:15:39;;;;;;;16.62;13.03;;;;;;;25.11;75.64;100195.06;1665825;86;21744;-54
2021/07/01 06:18:43;;;;;;;18.32;13.78;;;;;;;25.22;75.39;100200.98;1721849;82;21243;-53
2021/07/01 06:21:48;;;;;;;14.38;12.15;;;;;;;25.32;75.29;100195.42;1738058;82;21862;-54
2021/07/01 06:24:55;;;;;;;17.10;14.18;;;;;;;25.40;74.30;100190.70;1715537;82;21735;-55
2021/07/01 06:28:00;;;;;;;17.30;14.10;;;;;;;25.49;74.09;100199.70;1717340;81;21804;-55
2021/07/01 06:31:08;;;;;;;17.45;13.13;;;;;;;25.61;74.12;100204.47;1740890;82;21188;-54
2021/07/01 06:34:17;;;;;;;17.30;13.30;;;;;;;25.68;73.27;100192.98;1680435;85;21358;-55
2021/07/01 06:37:23;;;;;;;17.85;12.90;;;;;;;25.76;72.90;100186.27;1710321;84;21777;-54
2021/07/01 06:40:46;;;;;;;14.15;11.50;;;;;;;25.85;72.90;100178.11;1743842;81;21214;-53
2021/07/01 06:43:59;;;;;;;12.58;11.18;;;;;;;25.93;73.24;100176.16;1724636;82;21478;-53
2021/07/01 06:47:14;;;;;;;14.68;11.97;;;;;;;26.01;73.54;100167.20;1690422;82;21271;-54
2021/07/01 06:50:38;;;;;;;14.30;11.33;;;;;;;26.13;73.34;100176.19;1740783;81;21504;-55
2021/07/01 06:54:03;;;;;;;16.15;11.45;;;;;;;26.23;73.11;100171.94;1726658;82;21273;-55
2021/07/01 06:57:25;;;;;;;14.43;10.55;;;;;;;26.29;72.34;100177.27;1722256;82;21969;-55
2021/07/01 07:00:32;;;;;;;15.38;10.78;;;;;;;26.37;71.94;100178.09;1708497;82;21225;-54
2021/07/01 07:03:39;;;;;;;13.78;10.98;;;;;;;26.46;71.17;100174.16;1701684;83;21817;-55
2021/07/01 07:06:45;;;;;;;11.78;9.20;;;;;;;26.60;70.81;100177.19;1752704;81;21887;-56
2021/07/01 07:09:55;;;;;;;17.98;10.28;;;;;;;26.70;68.83;100164.01;1750930;80;21476;-57
2021/07/01 07:13:01;;;;;;;14.13;10.18;;;;;;;26.82;67.87;100167.32;1720799;82;21491;-55
2021/07/01 07:16:09;;;;;;;16.50;10.53;;;;;;;26.94;67.84;100173.44;1731998;81;21736;-53
2021/07/01 07:19:17;;;;;;;14.23;10.40;;;;;;;27.04;66.77;100172.55;1717789;82;21187;-56
2021/07/01 07:22:24;;;;;;;15.13;10.35;;;;;;;27.11;65.97;100178.16;1723645;82;21260;-54
2021/07/01 07:25:30;;;;;;;18.50;9.83;;;;;;;27.21;66.30;100184.28;1739238;82;21229;-56
2021/07/01 07:28:39;;;;;;;14.00;10.13;;;;;;;27.31;66.72;100172.99;1740454;82;21173;-55
2021/07/01 07:31:48;;;;;;;13.00;10.10;;;;;;;27.42;66.68;100178.83;1723217;82;21272;-55
2021/07/01 07:34:55;;;;;;;14.55;10.53;;;;;;;27.52;66.16;100178.21;1694915;82;21209;-56
2021/07/01 07:38:03;;;;;;;12.88;9.73;;;;;;;27.61;65.99;100179.27;1677723;84;21212;-55
2021/07/01 07:41:14;;;;;;;15.23;10.28;;;;;;;27.71;64.81;100176.94;1677851;84;21765;-56
2021/07/01 07:44:21;;;;;;;14.78;10.58;;;;;;;27.83;64.06;100178.80;1713462;82;21228;-56
2021/07/01 07:47:28;;;;;;;11.48;10.30;;;;;;;27.97;64.83;100179.86;1718890;82;21729;-53
2021/07/01 07:50:35;;;;;;;15.08;10.35;;;;;;;28.09;64.12;100179.45;1681875;85;21252;-52
2021/07/01 07:53:45;;;;;;;14.83;10.68;;;;;;;28.22;64.86;100183.00;1705899;84;21211;-52
2021/07/01 07:56:51;;;;;;;23.83;11.45;;;;;;;28.30;65.08;100180.95;1714787;82;21758;-52
2021/07/01 08:00:00;;;;;;;11.88;10.68;;;;;;;28.39;64.16;100184.23;1717546;82;21729;-53
2021/07/01 08:03:12;;;;;;;12.95;10.32;;;;;;;28.51;65.32;100176.83;1689403;84;21466;-52
2021/07/01 08:06:17;;;;;;;13.95;9.98;;;;;;;28.63;65.12;100174.42;1697042;83;21378;-53
2021/07/01 08:09:25;;;;;;;11.73;10.55;;;;;;;28.71;64.17;100172.36;1696214;83;21874;-52
2021/07/01 08:12:32;;;;;;;12.58;10.28;;;;;;;28.84;63.21;100168.81;1717485;83;21283;-53
2021/07/01 08:15:44;;;;;;;13.08;9.50;;;;;;;28.92;62.78;100162.52;1700816;83;21197;-53
2021/07/01 08:18:49;;;;;;;11.12;9.93;;;;;;;28.96;62.92;100173.44;1741114;80;21785;-52
2021/07/01 08:21:56;;;;;;;14.70;10.23;;;;;;;29.00;62.41;100163.26;1748852;81;21225;-53
2021/07/01 08:25:05;;;;;;;39.25;11.63;;;;;;;29.03;61.90;100157.83;1748474;81;21198;-53
2021/07/01 08:28:14;;;;;;;12.78;9.68;;;;;;;29.06;62.20;100156.41;1737295;81;21240;-53
2021/07/01 08:31:23;;;;;;;13.18;9.93;;;;;;;29.12;62.52;100158.04;1745232;82;21270;-52
2021/07/01 08:34:29;;;;;;;12.88;9.45;;;;;;;29.13;62.38;100154.06;1751117;82;21717;-53
2021/07/01 08:37:37;;;;;;;10.43;9.33;;;;;;;29.16;62.37;100153.48;1751096;82;21200;-51
2021/07/01 08:40:44;;;;;;;15.25;11.25;;;;;;;29.21;62.85;100154.23;1744906;82;21445;-52
2021/07/01 08:44:09;;;;;;;10.80;9.58;;;;;;;29.27;63.22;100145.71;1732059;82;21992;-52
2021/07/01 08:47:20;;;;;;;13.65;9.88;;;;;;;29.32;62.63;100140.00;1728081;82;21746;-50
2021/07/01 08:50:27;;;;;;;13.13;9.10;;;;;;;29.35;61.83;100131.77;1745793;82;21417;-53
2021/07/01 08:53:59;;;;;;;14.50;9.08;;;;;;;29.48;61.98;100137.22;1747146;81;21322;-52
2021/07/01 08:57:05;;;;;;;11.12;8.85;;;;;;;29.56;61.17;100141.58;1721218;82;21275;-52
2021/07/01 09:00:21;;;;;;;11.20;8.85;;;;;;;29.64;60.05;100124.52;1731512;82;21727;-53
2021/07/01 09:03:27;;;;;;;14.60;9.33;;;;;;;29.67;59.27;100126.19;1729195;80;21287;-56
2021/07/01 09:06:36;;;;;;;12.35;9.30;;;;;;;29.74;59.29;100126.64;1760158;81;21295;-53
2021/07/01 09:09:44;;;;;;;11.57;8.73;;;;;;;29.80;60.01;100125.97;1757370;81;21196;-54
2021/07/01 09:13:04;;;;;;;13.78;9.88;;;;;;;29.81;60.29;100124.84;1773512;81;22089;-53
2021/07/01 09:16:10;;;;;;;14.40;9.58;;;;;;;29.83;59.96;100112.08;1731611;81;21201;-53
2021/07/01 09:19:16;;;;;;;11.15;9.05;;;;;;;29.88;59.96;100120.47;1773660;81;21279;-53
2021/07/01 09:22:24;;;;;;;11.78;9.45;;;;;;;30.00;59.90;100122.22;1773844;81;21386;-53
2021/07/01 09:25:29;;;;;;;13.30;9.30;;;;;;;30.13;58.92;100116.33;1753193;80;21433;-54
2021/07/01 09:28:35;;;;;;;12.10;9.03;;;;;;;30.31;58.17;100105.02;1773583;80;21315;-53
2021/07/01 09:31:44;;;;;;;11.28;8.88;;;;;;;30.41;59.10;100108.22;1774634;81;21821;-54
2021/07/01 09:34:52;;;;;;;13.80;9.58;;;;;;;30.41;59.10;100108.22;1767728;79;21233;-52
2021/07/01 09:37:58;;;;;;;11.48;8.63;;;;;;;30.45;58.06;100100.20;1765902;81;22260;-52
2021/07/01 09:41:03;;;;;;;13.35;9.18;;;;;;;30.47;56.87;100109.22;1766148;81;21355;-54
2021/07/01 09:44:09;;;;;;;12.90;8.83;;;;;;;30.55;56.63;100108.48;1766198;81;21407;-55
2021/07/01 09:47:16;;;;;;;12.73;9.03;;;;;;;30.68;57.22;100103.38;1766278;81;21339;-54
2021/07/01 09:50:22;;;;;;;10.82;8.50;;;;;;;30.79;56.78;100095.57;1766159;81;21241;-54
2021/07/01 09:53:35;;;;;;;10.38;7.60;;;;;;;30.99;57.43;100098.50;1766194;81;21371;-57
2021/07/01 09:56:47;;;;;;;12.95;7.72;;;;;;;31.14;55.52;100091.11;1766018;81;21237;-56
2021/07/01 10:00:00;;;;;;;10.85;8.30;;;;;;;31.27;53.54;100091.65;1765807;81;21221;-57
2021/07/01 10:03:13;;;;;;;14.38;7.15;;;;;;;31.47;53.45;100095.42;1763618;80;21404;-55
2021/07/01 10:06:24;;;;;;;7.83;6.58;;;;;;;31.65;52.34;100090.17;1774855;81;21892;-53
2021/07/01 10:09:38;;;;;;;10.20;6.70;;;;;;;31.77;50.20;100087.02;1774487;81;21186;-56
2021/07/01 10:12:59;;;;;;;10.80;7.90;;;;;;;31.83;49.38;100074.95;1773839;81;21319;-56
2021/07/01 10:16:05;;;;;;;8.50;7.10;;;;;;;31.93;51.68;100065.66;1750919;81;21212;-56
2021/07/01 10:19:17;;;;;;;10.68;7.03;;;;;;;31.97;51.25;100081.41;1754328;81;21214;-55
2021/07/01 10:22:25;;;;;;;8.20;6.65;;;;;;;31.97;50.10;100085.65;1754797;81;21195;-54
2021/07/01 10:25:39;;;;;;;11.78;8.05;;;;;;;31.90;48.83;100077.61;1762740;81;21382;-54
2021/07/01 10:28:45;;;;;;;13.20;7.95;;;;;;;31.75;48.87;100082.81;1774731;81;21335;-54
2021/07/01 10:32:09;;;;;;;12.75;9.35;;;;;;;31.55;49.28;100079.94;1771399;80;21229;-54
2021/07/01 10:35:30;;;;;;;9.83;7.90;;;;;;;31.35;50.11;100074.77;1733128;83;21214;-55
2021/07/01 10:38:56;;;;;;;12.05;7.92;;;;;;;31.13;50.80;100058.33;1733421;83;21261;-54
2021/07/01 10:42:07;;;;;;;10.35;8.90;;;;;;;30.91;51.13;100055.42;1747864;81;21319;-54
2021/07/01 10:45:17;;;;;;;9.28;7.53;;;;;;;30.65;51.94;100045.25;1722714;81;21263;-54
2021/07/01 10:48:26;;;;;;;11.38;7.35;;;;;;;30.43;52.39;100058.70;1744356;82;21767;-54
2021/07/01 10:51:32;;;;;;;12.10;7.03;;;;;;;30.21;53.05;100079.78;1744827;81;21423;-55
2021/07/01 10:54:38;;;;;;;9.93;6.90;;;;;;;29.85;53.03;100084.95;1753883;80;21200;-54
2021/07/01 10:57:46;;;;;;;11.83;7.97;;;;;;;29.35;53.96;100084.38;1773775;81;21196;-54
2021/07/01 11:00:51;;;;;;;17.25;10.68;;;;;;;28.93;55.62;100072.57;1753346;80;21259;-54
2021/07/01 11:04:11;;;;;;;18.12;9.98;;;;;;;28.56;57.19;100069.12;1745116;81;21780;-54
2021/07/01 11:07:19;;;;;;;11.12;7.87;;;;;;;28.22;56.57;100067.55;1746482;82;21212;-54
2021/07/01 11:10:31;;;;;;;10.93;6.12;;;;;;;27.92;57.10;100066.48;1738013;82;21236;-54
2021/07/01 11:13:38;;;;;;;9.43;5.53;;;;;;;27.63;58.11;100060.82;1743605;82;21223;-52
2021/07/01 11:16:53;;;;;;;7.67;6.12;;;;;;;27.38;56.67;100053.46;1716466;83;21801;-53
2021/07/01 11:19:59;;;;;;;9.05;6.10;;;;;;;27.26;56.45;100046.47;1745803;82;21279;-53
2021/07/01 11:23:06;;;;;;;11.43;7.08;;;;;;;27.17;58.09;100037.84;1718475;83;21366;-53
2021/07/01 11:26:37;;;;;;;9.33;7.53;;;;;;;27.13;60.22;100043.76;1716367;83;21248;-53
2021/07/01 11:29:56;;;;;;;14.33;10.50;;;;;;;27.11;61.65;100047.45;1736275;82;21896;-54
2021/07/01 11:33:19;;;;;;;13.18;9.40;;;;;;;27.15;62.83;100047.13;1741934;82;21216;-54
2021/07/01 11:36:26;;;;;;;20.37;10.18;;;;;;;27.22;63.82;100058.89;1727760;82;21240;-53
2021/07/01 11:39:35;;;;;;;12.75;8.35;;;;;;;27.38;65.10;100056.83;1697137;83;22133;-53
2021/07/01 11:42:42;;;;;;;12.03;7.65;;;;;;;27.47;65.85;100078.41;1717883;83;21837;-54
2021/07/01 11:45:47;;;;;;;10.03;5.70;;;;;;;27.54;65.48;100102.80;1718200;83;21423;-54
2021/07/01 11:48:54;;;;;;;11.08;6.62;;;;;;;27.60;63.17;100105.86;1722908;82;21776;-54
2021/07/01 11:52:01;;;;;;;13.13;5.60;;;;;;;27.54;61.23;100111.82;1747767;82;21228;-53
2021/07/01 11:55:07;;;;;;;11.35;4.90;;;;;;;27.51;60.68;100110.41;1703120;83;21188;-52
2021/07/01 11:58:13;;;;;;;8.63;4.78;;;;;;;27.59;58.55;100114.01;1745482;82;21236;-53
2021/07/01 12:01:21;;;;;;;8.73;4.30;;;;;;;27.36;57.69;100102.67;1740814;82;21711;-53
2021/07/01 12:04:30;;;;;;;15.32;4.72;;;;;;;27.17;57.86;100080.56;1725041;82;21331;-53
2021/07/01 12:07:41;;;;;;;6.83;4.85;;;;;;;27.11;57.97;100057.84;1689441;83;21212;-53
2021/07/01 12:10:47;;;;;;;8.90;4.30;;;;;;;27.01;57.59;100055.09;1743662;82;21209;-53
2021/07/01 12:13:52;;;;;;;6.47;4.47;;;;;;;27.03;57.63;100059.31;1781495;80;21176;-53
2021/07/01 12:16:57;;;;;;;7.22;4.70;;;;;;;27.08;57.17;100071.08;1781629;80;21204;-54
2021/07/01 12:20:08;;;;;;;8.50;4.45;;;;;;;27.13;57.58;100067.66;1782198;79;21231;-54
2021/07/01 12:23:28;;;;;;;8.75;4.55;;;;;;;27.25;57.63;100079.39;1788081;79;21393;-55
2021/07/01 12:26:52;;;;;;;5.92;4.45;;;;;;;27.25;56.73;100084.16;1781807;80;21226;-55
2021/07/01 12:29:58;;;;;;;6.25;4.62;;;;;;;26.99;56.92;100094.73;1748437;82;21263;-55
2021/07/01 12:33:04;;;;;;;8.65;4.75;;;;;;;26.60;57.83;100088.73;1757875;79;21267;-52
2021/07/01 12:36:30;;;;;;;10.55;5.80;;;;;;;26.45;59.09;100098.05;1742709;80;21228;-54
2021/07/01 12:39:51;;;;;;;11.57;5.33;;;;;;;26.54;60.17;100103.38;1733743;81;21276;-54
2021/07/01 12:42:59;;;;;;;10.03;5.80;;;;;;;26.67;61.04;100104.16;1718134;83;21426;-54
2021/07/01 12:46:07;;;;;;;12.28;5.78;;;;;;;26.68;60.50;100096.03;1715372;83;21398;-55
2021/07/01 12:49:13;;;;;;;6.47;5.10;;;;;;;26.63;60.34;100096.58;1751346;82;21338;-53
2021/07/01 12:52:26;;;;;;;8.68;4.92;;;;;;;26.60;60.20;100099.41;1725020;82;21244;-53
2021/07/01 12:55:33;;;;;;;7.87;4.95;;;;;;;26.68;61.08;100109.23;1722184;82;21210;-54
2021/07/01 12:58:47;;;;;;;7.97;4.55;;;;;;;26.96;60.62;100102.34;1771567;80;21327;-54
2021/07/01 13:01:56;;;;;;;7.47;4.92;;;;;;;27.33;59.77;100094.27;1770991;80;21334;-54
2021/07/01 13:05:07;;;;;;;6.72;4.67;;;;;;;27.64;58.36;100091.47;1776054;80;21185;-54
2021/07/01 13:08:13;;;;;;;7.12;5.03;;;;;;;27.95;57.97;100084.18;1741297;80;21319;-53
2021/07/01 13:11:20;;;;;;;10.20;5.03;;;;;;;28.12;57.61;100097.22;1743139;81;21721;-55
2021/07/01 13:14:27;;;;;;;11.57;5.40;;;;;;;28.25;57.29;100090.33;1774166;80;21247;-54
2021/07/01 13:17:36;;;;;;;9.30;4.80;;;;;;;28.33;57.47;100081.23;1776675;80;21200;-54
2021/07/01 13:20:43;;;;;;;8.75;4.95;;;;;;;28.26;56.18;100074.28;1774300;80;21248;-54
2021/07/01 13:23:51;;;;;;;6.47;4.30;;;;;;;28.24;56.75;100063.88;1753595;80;21284;-55
2021/07/01 13:26:59;;;;;;;6.83;4.33;;;;;;;28.32;56.23;100061.81;1708925;82;21479;-55
2021/07/01 13:30:07;;;;;;;8.50;4.30;;;;;;;28.34;55.35;100056.70;1714128;83;21208;-58
2021/07/01 13:33:21;;;;;;;9.15;5.00;;;;;;;28.41;54.86;100052.97;1714363;83;21181;-56
2021/07/01 13:36:26;;;;;;;12.10;4.53;;;;;;;28.28;54.70;100047.49;1745491;82;21540;-57
2021/07/01 13:39:41;;;;;;;5.35;3.70;;;;;;;28.29;55.06;100063.23;1719226;82;21208;-56
2021/07/01 13:42:46;;;;;;;8.88;4.62;;;;;;;28.36;55.14;100068.52;1714721;83;21844;-57
2021/07/01 13:45:55;;;;;;;6.10;4.00;;;;;;;28.57;56.02;100077.02;1715107;82;21220;-58
2021/07/01 13:49:10;;;;;;;6.83;4.05;;;;;;;28.78;55.40;100074.21;1716856;82;21405;-57
2021/07/01 13:52:15;;;;;;;6.15;3.40;;;;;;;29.09;54.19;100055.17;1740490;82;21531;-58
2021/07/01 13:55:44;;;;;;;9.88;4.85;;;;;;;29.18;53.69;100045.44;1745037;82;21734;-58
2021/07/01 13:58:51;;;;;;;6.17;4.25;;;;;;;29.18;53.69;100045.44;1725880;81;21208;-55
2021/07/01 14:02:01;;;;;;;6.80;4.10;;;;;;;29.16;54.03;100042.11;1714976;83;21231;-55
2021/07/01 14:05:07;;;;;;;9.40;4.30;;;;;;;29.19;54.01;100034.44;1736529;82;21284;-56
2021/07/01 14:08:14;;;;;;;7.47;4.47;;;;;;;29.17;54.29;100031.08;1725725;82;21531;-55
2021/07/01 14:11:28;;;;;;;7.67;4.12;;;;;;;29.11;54.39;100026.08;1733119;82;21382;-54
2021/07/01 14:14:34;;;;;;;9.03;4.12;;;;;;;29.23;54.50;100035.48;1732903;82;21343;-54
2021/07/01 14:17:39;;;;;;;8.73;4.67;;;;;;;29.46;54.27;100019.03;1733256;82;21307;-56
2021/07/01 14:20:44;;;;;;;6.90;4.12;;;;;;;29.63;54.38;100008.56;1733043;82;21952;-51
2021/07/01 14:23:50;;;;;;;7.25;4.28;;;;;;;29.80;54.06;100008.27;1716246;82;21235;-50
2021/07/01 14:26:57;;;;;;;8.58;4.35;;;;;;;30.04;53.72;100019.38;1727629;81;21197;-51
2021/07/01 14:30:03;;;;;;;10.20;4.50;;;;;;;30.25;53.27;100020.11;1687737;85;21319;-52
2021/07/01 14:33:34;;;;;;;6.78;5.05;;;;;;;30.37;53.48;100030.30;1704411;84;22025;-52
2021/07/01 14:36:38;;;;;;;8.38;4.75;;;;;;;30.37;53.82;100033.69;1688341;85;21374;-52